createdAt,value
2023-05-18T00:00:15.378Z,73.00
2023-05-18T00:01:24.940Z,72.80
2023-05-18T00:02:28.646Z,73.00
2023-05-18T00:03:36.560Z,73.10
2023-05-18T00:04:42.187Z,73.10
2023-05-18T00:05:46.339Z,73.00
2023-05-18T00:06:49.285Z,73.00
2023-05-18T00:08:08.377Z,73.20
2023-05-18T00:09:15.357Z,73.30
2023-05-18T00:10:21.280Z,73.20
2023-05-18T00:11:24.253Z,73.20
2023-05-18T00:12:30.322Z,73.20
2023-05-18T00:13:33.633Z,73.30
2023-05-18T00:14:38.188Z,73.20
2023-05-18T00:15:41.235Z,73.20
2023-05-18T00:16:45.444Z,73.10
2023-05-18T00:17:51.064Z,73.10
2023-05-18T00:18:56.897Z,73.10
2023-05-18T00:20:01.106Z,73.20
2023-05-18T00:21:07.045Z,73.20
2023-05-18T00:22:20.960Z,73.20
2023-05-18T00:23:30.308Z,73.20
2023-05-18T00:24:35.026Z,73.30
2023-05-18T00:25:43.808Z,73.30
2023-05-18T00:26:49.354Z,73.30
2023-05-18T00:27:57.374Z,73.40
2023-05-18T00:29:00.460Z,73.40
2023-05-18T00:30:14.262Z,73.30
2023-05-18T00:31:18.326Z,73.30
2023-05-18T00:32:39.174Z,73.30
2023-05-18T00:33:46.572Z,73.30
2023-05-18T00:34:49.958Z,73.40
2023-05-18T00:35:59.583Z,73.60
2023-05-18T00:37:03.378Z,73.50
2023-05-18T00:38:08.731Z,73.60
2023-05-18T00:39:15.116Z,73.20
2023-05-18T00:40:19.977Z,73.50
2023-05-18T00:41:25.433Z,73.60
2023-05-18T00:42:29.936Z,73.80
2023-05-18T00:43:39.023Z,73.90
2023-05-18T00:44:47.342Z,73.90
2023-05-18T00:45:53.943Z,73.90
2023-05-18T00:47:00.559Z,73.90
2023-05-18T00:48:03.794Z,74.00
2023-05-18T00:49:09.203Z,74.00
2023-05-18T00:50:15.662Z,74.00
2023-05-18T00:51:21.170Z,73.90
2023-05-18T00:52:25.789Z,74.00
2023-05-18T00:53:31.108Z,74.00
2023-05-18T00:54:39.413Z,74.00
2023-05-18T00:55:43.964Z,73.90
2023-05-18T00:56:49.392Z,74.00
2023-05-18T00:57:59.026Z,74.00
2023-05-18T00:59:03.623Z,74.00
2023-05-18T01:00:12.579Z,74.00
2023-05-18T01:01:18.110Z,74.20
2023-05-18T01:02:22.526Z,74.10
2023-05-18T01:03:26.580Z,74.10
2023-05-18T01:04:34.403Z,74.00
2023-05-18T01:05:37.987Z,74.20
2023-05-18T01:06:46.602Z,74.30
2023-05-18T01:07:50.689Z,74.40
2023-05-18T01:09:19.329Z,74.30
2023-05-18T01:10:25.616Z,74.30
2023-05-18T01:11:52.906Z,74.30
2023-05-18T01:13:09.282Z,74.20
2023-05-18T01:14:30.543Z,74.20
2023-05-18T01:15:43.534Z,74.20
2023-05-18T01:17:06.943Z,74.20
2023-05-18T01:18:30.362Z,74.30
2023-05-18T01:20:28.074Z,74.30
2023-05-18T01:21:52.535Z,74.40
2023-05-18T01:23:23.992Z,74.40
2023-05-18T01:24:39.528Z,74.30
2023-05-18T01:25:58.755Z,74.50
2023-05-18T01:27:13.251Z,74.60
2023-05-18T01:28:28.067Z,74.60
2023-05-18T01:29:38.360Z,74.60
2023-05-18T01:30:47.759Z,74.60
2023-05-18T01:32:10.509Z,74.50
2023-05-18T01:33:21.906Z,74.50
2023-05-18T01:34:26.730Z,74.50
2023-05-18T01:35:29.961Z,74.40
2023-05-18T01:36:35.706Z,74.50
2023-05-18T01:37:38.914Z,74.40
2023-05-18T01:38:45.495Z,74.40
2023-05-18T01:39:58.418Z,74.40
2023-05-18T01:41:12.699Z,74.40
2023-05-18T01:42:28.480Z,74.50
2023-05-18T01:43:46.616Z,74.50
2023-05-18T01:45:03.225Z,74.50
2023-05-18T01:46:21.139Z,74.50
2023-05-18T01:47:31.584Z,74.60
2023-05-18T01:48:40.539Z,74.80
2023-05-18T01:49:52.547Z,74.90
2023-05-18T01:51:00.494Z,75.10
2023-05-18T01:52:08.194Z,75.10
2023-05-18T01:53:27.029Z,75.00
2023-05-18T01:54:34.413Z,75.00
2023-05-18T01:55:45.295Z,75.00
2023-05-18T01:56:53.013Z,75.00
2023-05-18T01:58:18.241Z,75.00
2023-05-18T01:59:24.908Z,75.00
2023-05-18T02:00:29.985Z,75.00
2023-05-18T02:01:36.956Z,75.10
2023-05-18T02:02:56.427Z,75.10
2023-05-18T02:04:02.705Z,75.00
2023-05-18T02:05:15.387Z,75.00
2023-05-18T02:06:21.314Z,75.00
2023-05-18T02:07:25.993Z,75.20
2023-05-18T02:08:33.824Z,75.10
2023-05-18T02:09:38.213Z,75.10
2023-05-18T02:10:44.851Z,75.20
2023-05-18T02:11:50.708Z,75.20
2023-05-18T02:12:54.101Z,75.20
2023-05-18T02:14:03.018Z,75.20
2023-05-18T02:15:08.473Z,75.30
2023-05-18T02:16:13.987Z,75.40
2023-05-18T02:17:19.710Z,75.30
2023-05-18T02:18:27.100Z,75.30
2023-05-18T02:19:31.187Z,75.40
2023-05-18T02:20:37.625Z,75.50
2023-05-18T02:21:41.763Z,75.50
2023-05-18T02:23:40.642Z,75.50
2023-05-18T02:24:46.471Z,75.40
2023-05-18T02:25:55.658Z,75.70
2023-05-18T02:27:36.907Z,75.60
2023-05-18T02:28:44.394Z,75.70
2023-05-18T02:36:10.098Z,76.00
2023-05-18T02:37:21.968Z,75.90
2023-05-18T02:38:48.628Z,76.00
2023-05-18T02:39:53.548Z,76.00
2023-05-18T02:41:02.596Z,76.10
2023-05-18T02:42:16.316Z,76.10
2023-05-18T02:43:32.247Z,76.10
2023-05-18T02:45:14.375Z,76.10
2023-05-18T02:46:19.353Z,76.10
2023-05-18T02:47:24.153Z,76.10
2023-05-18T02:48:34.076Z,76.20
2023-05-18T02:49:38.562Z,76.20
2023-05-18T02:50:52.935Z,76.40
2023-05-18T02:52:01.648Z,76.30
2023-05-18T02:53:15.697Z,76.30
2023-05-18T02:54:24.059Z,76.50
2023-05-18T02:55:32.096Z,76.50
2023-05-18T02:56:47.153Z,76.50
2023-05-18T02:58:08.460Z,76.60
2023-05-18T02:59:42.255Z,76.50
2023-05-18T03:00:56.427Z,76.60
2023-05-18T03:02:03.357Z,76.80
2023-05-18T03:03:16.412Z,76.80
2023-05-18T03:04:40.543Z,76.80
2023-05-18T03:05:46.650Z,76.80
2023-05-18T03:06:58.767Z,77.10
2023-05-18T03:08:21.414Z,77.10
2023-05-18T03:10:20.915Z,77.10
2023-05-18T03:11:27.782Z,77.10
2023-05-18T03:12:42.224Z,77.10
2023-05-18T03:14:46.713Z,77.20
2023-05-18T03:16:15.674Z,77.20
2023-05-18T03:17:33.466Z,77.20
2023-05-18T03:18:51.071Z,77.20
2023-05-18T03:20:21.912Z,77.20
2023-05-18T03:21:40.569Z,77.30
2023-05-18T03:23:10.541Z,77.30
2023-05-18T03:24:42.134Z,77.30
2023-05-18T03:26:08.253Z,77.40
2023-05-18T03:27:26.202Z,77.40
2023-05-18T03:29:09.765Z,77.40
2023-05-18T03:31:07.690Z,77.50
2023-05-18T03:32:49.848Z,77.50
2023-05-18T03:34:29.898Z,77.60
2023-05-18T03:41:07.909Z,77.90
2023-05-18T03:42:15.635Z,77.90
2023-05-18T03:43:21.813Z,78.00
2023-05-18T03:45:44.179Z,78.00
2023-05-18T03:47:39.253Z,77.90
2023-05-18T03:48:48.148Z,77.90
2023-05-18T03:49:58.977Z,78.10
2023-05-18T03:51:04.528Z,78.00
2023-05-18T03:52:22.793Z,78.10
2023-05-18T03:53:31.731Z,78.30
2023-05-18T03:54:37.795Z,78.40
2023-05-18T03:55:44.442Z,78.30
2023-05-18T03:57:05.681Z,78.40
2023-05-18T03:58:12.334Z,78.30
2023-05-18T03:59:18.285Z,78.40
2023-05-18T04:00:41.328Z,78.40
2023-05-18T04:01:47.318Z,78.40
2023-05-18T04:03:00.485Z,78.30
2023-05-18T04:04:04.376Z,78.40
2023-05-18T04:05:11.413Z,78.30
2023-05-18T04:06:19.216Z,78.30
2023-05-18T04:07:31.468Z,78.40
2023-05-18T04:08:35.605Z,78.40
2023-05-18T04:09:45.059Z,78.40
2023-05-18T04:10:54.018Z,78.40
2023-05-18T04:12:06.475Z,78.40
2023-05-18T04:13:22.031Z,78.50
2023-05-18T04:14:35.277Z,78.50
2023-05-18T04:15:46.786Z,78.50
2023-05-18T04:17:05.571Z,78.50
2023-05-18T04:18:31.184Z,78.50
2023-05-18T04:19:48.204Z,78.50
2023-05-18T04:20:55.566Z,78.60
2023-05-18T04:22:18.097Z,78.50
2023-05-18T04:23:34.404Z,78.60
2023-05-18T04:24:41.522Z,78.50
2023-05-18T04:25:49.785Z,78.50
2023-05-18T04:26:53.305Z,78.50
2023-05-18T04:28:04.071Z,78.60
2023-05-18T04:29:11.001Z,78.60
2023-05-18T04:30:27.502Z,78.60
2023-05-18T04:31:35.233Z,78.60
2023-05-18T04:32:44.360Z,78.80
2023-05-18T04:33:57.428Z,78.70
2023-05-18T04:35:10.055Z,78.70
2023-05-18T04:36:22.703Z,78.70
2023-05-18T04:37:27.159Z,78.80
2023-05-18T04:38:41.501Z,78.80
2023-05-18T04:39:51.927Z,78.90
2023-05-18T04:41:13.969Z,79.10
2023-05-18T04:42:24.526Z,79.10
2023-05-18T04:43:31.252Z,79.20
2023-05-18T04:44:36.863Z,79.20
2023-05-18T04:45:43.137Z,79.10
2023-05-18T04:46:51.403Z,79.10
2023-05-18T04:47:55.056Z,79.00
2023-05-18T04:49:02.125Z,79.00
2023-05-18T04:50:18.320Z,79.20
2023-05-18T04:51:34.734Z,79.10
2023-05-18T04:52:38.528Z,79.00
2023-05-18T04:53:56.981Z,79.00
2023-05-18T04:55:03.607Z,78.90
2023-05-18T04:56:18.170Z,78.80
2023-05-18T04:57:26.330Z,78.80
2023-05-18T04:58:35.850Z,78.50
2023-05-18T04:59:42.989Z,78.50
2023-05-18T05:00:53.212Z,78.20
2023-05-18T05:02:09.746Z,78.20
2023-05-18T05:05:04.169Z,78.20
2023-05-18T05:06:17.283Z,78.10
2023-05-18T05:07:27.401Z,78.00
2023-05-18T05:08:35.440Z,77.90
2023-05-18T05:09:39.073Z,77.70
2023-05-18T05:10:46.731Z,77.70
2023-05-18T05:11:59.409Z,77.60
2023-05-18T05:13:19.327Z,77.40
2023-05-18T05:14:26.171Z,77.40
2023-05-18T05:15:36.636Z,77.20
2023-05-18T05:16:45.979Z,77.00
2023-05-18T05:17:58.695Z,76.80
2023-05-18T05:19:08.390Z,76.50
2023-05-18T05:20:23.984Z,76.40
2023-05-18T05:21:40.869Z,76.10
2023-05-18T05:23:03.487Z,75.90
2023-05-18T05:28:25.425Z,75.20
2023-05-18T05:29:32.155Z,74.60
2023-05-18T05:30:42.080Z,74.40
2023-05-18T05:31:48.632Z,74.10
2023-05-18T05:32:56.470Z,74.00
2023-05-18T05:34:00.512Z,73.70
2023-05-18T05:35:10.612Z,73.50
2023-05-18T05:36:27.972Z,73.30
2023-05-18T05:37:38.852Z,72.70
2023-05-18T05:38:43.544Z,72.50
2023-05-18T05:39:52.741Z,72.40
2023-05-18T05:40:59.002Z,72.40
2023-05-18T05:42:08.433Z,72.30
2023-05-18T05:43:15.062Z,72.10
2023-05-18T05:44:21.135Z,72.20
2023-05-18T05:45:30.932Z,72.10
2023-05-18T05:46:39.842Z,72.10
2023-05-18T05:47:50.161Z,71.80
2023-05-18T05:48:56.718Z,71.80
2023-05-18T05:50:03.205Z,71.70
2023-05-18T05:51:22.510Z,71.30
2023-05-18T05:52:35.151Z,71.10
2023-05-18T05:53:49.795Z,70.90
2023-05-18T05:54:58.311Z,70.90
2023-05-18T05:56:02.690Z,70.50
2023-05-18T05:57:08.616Z,70.30
2023-05-18T05:58:16.062Z,70.10
2023-05-18T05:59:25.487Z,70.10
2023-05-18T06:00:34.580Z,70.00
2023-05-18T06:01:43.917Z,69.90
2023-05-18T06:02:52.037Z,69.70
2023-05-18T06:04:12.978Z,69.30
2023-05-18T06:05:28.364Z,68.80
2023-05-18T06:06:38.792Z,68.70
2023-05-18T06:07:50.686Z,68.60
2023-05-18T06:09:00.950Z,68.50
2023-05-18T06:10:11.471Z,68.10
2023-05-18T06:11:58.815Z,67.30
2023-05-18T06:13:47.856Z,66.80
2023-05-18T06:15:18.626Z,65.60
2023-05-18T06:16:56.659Z,65.50
2023-05-18T06:18:39.849Z,65.30
2023-05-18T06:20:12.826Z,65.00
2023-05-18T06:21:22.444Z,64.60
2023-05-18T06:23:10.873Z,63.90
2023-05-18T06:24:42.441Z,63.80
2023-05-18T06:26:33.851Z,63.20
2023-05-18T06:28:18.464Z,63.20
2023-05-18T06:29:41.894Z,62.30
2023-05-18T06:31:08.959Z,61.50
2023-05-18T06:32:39.447Z,61.20
2023-05-18T06:34:16.459Z,60.90
2023-05-18T06:35:42.586Z,61.30
2023-05-18T06:37:30.051Z,61.00
2023-05-18T06:39:03.293Z,61.00
2023-05-18T06:40:33.445Z,61.10
2023-05-18T06:44:41.090Z,60.20
2023-05-18T06:46:00.057Z,59.20
2023-05-18T06:47:10.288Z,58.10
2023-05-18T06:48:15.269Z,58.10
2023-05-18T06:49:21.650Z,57.60
2023-05-18T06:50:26.529Z,57.60
2023-05-18T06:51:36.186Z,57.80
2023-05-18T06:52:44.083Z,57.80
2023-05-18T06:53:53.449Z,57.10
2023-05-18T06:55:17.991Z,57.40
2023-05-18T06:56:48.092Z,57.30
2023-05-18T06:59:22.615Z,57.10
2023-05-18T07:00:32.334Z,57.20
2023-05-18T07:01:47.523Z,56.80
2023-05-18T07:03:25.532Z,56.70
2023-05-18T07:06:00.908Z,56.80
2023-05-18T07:07:10.174Z,56.70
2023-05-18T07:08:25.639Z,56.70
2023-05-18T07:09:42.036Z,56.80
2023-05-18T07:10:59.444Z,56.80
2023-05-18T07:12:24.565Z,57.10
2023-05-18T07:13:42.739Z,57.40
2023-05-18T07:14:56.705Z,57.50
2023-05-18T07:16:42.594Z,57.50
2023-05-18T07:19:00.199Z,57.70
2023-05-18T07:20:13.531Z,57.90
2023-05-18T07:22:16.226Z,57.90
2023-05-18T07:23:23.614Z,58.20
2023-05-18T07:24:48.087Z,58.60
2023-05-18T07:25:57.836Z,58.90
2023-05-18T07:27:11.699Z,59.20
2023-05-18T07:28:15.194Z,59.30
2023-05-18T07:29:21.284Z,59.20
2023-05-18T07:30:28.005Z,59.00
2023-05-18T07:31:39.069Z,59.10
2023-05-18T07:32:45.515Z,59.20
2023-05-18T07:35:28.660Z,59.20
2023-05-18T07:36:35.514Z,59.00
2023-05-18T07:37:51.602Z,59.00
2023-05-18T07:39:17.448Z,58.90
2023-05-18T07:40:25.862Z,59.10
2023-05-18T07:41:32.329Z,59.20
2023-05-18T07:42:45.778Z,59.30
2023-05-18T07:43:50.977Z,59.20
2023-05-18T07:45:04.606Z,58.90
2023-05-18T07:46:16.602Z,58.60
2023-05-18T07:47:31.786Z,58.60
2023-05-18T07:48:40.996Z,58.60
2023-05-18T07:49:50.504Z,58.50
2023-05-18T07:51:01.381Z,58.20
2023-05-18T07:52:19.855Z,58.20
2023-05-18T07:53:27.488Z,57.90
2023-05-18T07:54:35.690Z,57.60
2023-05-18T07:55:43.327Z,57.70
2023-05-18T07:56:58.052Z,57.60
2023-05-18T07:58:19.965Z,57.30
2023-05-18T07:59:28.650Z,56.80
2023-05-18T08:00:39.260Z,56.70
2023-05-18T08:01:51.721Z,56.60
2023-05-18T08:03:07.247Z,56.10
2023-05-18T08:04:12.581Z,56.20
2023-05-18T08:05:26.336Z,56.30
2023-05-18T08:06:42.767Z,56.00
2023-05-18T08:07:47.381Z,55.90
2023-05-18T08:08:52.586Z,56.10
2023-05-18T08:10:01.963Z,55.70
2023-05-18T08:11:21.950Z,55.80
2023-05-18T08:12:32.256Z,55.80
2023-05-18T08:13:39.298Z,55.70
2023-05-18T08:14:44.755Z,55.60
2023-05-18T08:16:03.004Z,55.30
2023-05-18T08:17:22.473Z,55.30
2023-05-18T08:18:33.220Z,55.40
2023-05-18T08:19:41.961Z,55.60
2023-05-18T08:20:45.780Z,55.40
2023-05-18T08:21:55.193Z,55.30
2023-05-18T08:23:04.087Z,55.30
2023-05-18T08:24:16.653Z,55.30
2023-05-18T08:27:21.549Z,55.70
2023-05-18T08:28:47.608Z,56.10
2023-05-18T08:30:00.085Z,55.90
2023-05-18T08:31:04.758Z,56.10
2023-05-18T08:32:24.773Z,56.10
2023-05-18T08:33:29.864Z,56.10
2023-05-18T08:35:02.104Z,55.60
2023-05-18T08:36:23.993Z,55.70
2023-05-18T08:37:29.738Z,55.70
2023-05-18T08:38:35.364Z,55.30
2023-05-18T08:39:49.717Z,55.30
2023-05-18T08:41:06.872Z,55.00
2023-05-18T08:42:37.777Z,55.10
2023-05-18T08:44:05.580Z,55.40
2023-05-18T08:45:48.851Z,55.30
2023-05-18T08:47:09.792Z,55.20
2023-05-18T08:49:17.110Z,54.80
2023-05-18T08:50:36.464Z,55.20
2023-05-18T08:51:59.478Z,55.20
2023-05-18T08:53:20.312Z,54.80
2023-05-18T08:54:42.835Z,54.80
2023-05-18T08:55:54.212Z,54.80
2023-05-18T08:57:34.261Z,55.00
2023-05-18T08:58:50.537Z,54.90
2023-05-18T09:00:10.008Z,54.70
2023-05-18T09:01:19.392Z,54.80
2023-05-18T09:02:30.995Z,54.90
2023-05-18T09:03:42.811Z,55.10
2023-05-18T09:05:22.776Z,55.20
2023-05-18T09:06:26.801Z,55.30
2023-05-18T09:08:04.752Z,55.50
2023-05-18T09:10:41.170Z,55.30
2023-05-18T09:11:57.869Z,54.90
2023-05-18T09:13:09.704Z,54.90
2023-05-18T09:14:18.996Z,54.80
2023-05-18T09:15:43.568Z,55.10
2023-05-18T09:16:49.863Z,55.00
2023-05-18T09:18:15.229Z,54.70
2023-05-18T09:19:22.855Z,54.80
2023-05-18T09:20:30.377Z,54.60
2023-05-18T09:21:56.930Z,54.80
2023-05-18T09:23:01.156Z,54.80
2023-05-18T09:24:15.693Z,55.30
2023-05-18T09:26:33.041Z,54.90
2023-05-18T09:27:07.311Z,54.50
2023-05-18T09:28:15.461Z,55.10
2023-05-18T09:29:21.835Z,55.50
2023-05-18T09:30:29.211Z,55.60
2023-05-18T09:31:35.843Z,55.40
2023-05-18T09:32:41.036Z,55.10
2023-05-18T09:33:58.280Z,55.20
2023-05-18T09:35:18.939Z,55.00
2023-05-18T09:36:40.134Z,55.30
2023-05-18T09:37:52.732Z,55.50
2023-05-18T09:39:13.027Z,55.10
2023-05-18T09:40:21.591Z,55.00
2023-05-18T09:43:09.279Z,54.50
2023-05-18T09:44:50.127Z,53.70
2023-05-18T09:46:15.571Z,53.70
2023-05-18T09:48:09.526Z,53.50
2023-05-18T09:49:41.728Z,53.60
2023-05-18T09:50:50.621Z,53.30
2023-05-18T09:52:38.330Z,53.30
2023-05-18T09:54:00.516Z,53.30
2023-05-18T09:55:21.249Z,53.20
2023-05-18T09:57:18.095Z,53.10
2023-05-18T09:59:27.818Z,52.30
2023-05-18T10:00:59.364Z,52.70
2023-05-18T10:02:32.812Z,52.50
2023-05-18T10:03:48.014Z,52.90
2023-05-18T10:04:59.292Z,52.20
2023-05-18T10:08:09.027Z,51.90
2023-05-18T10:09:32.332Z,51.10
2023-05-18T10:10:51.161Z,51.10
2023-05-18T10:11:59.655Z,51.30
2023-05-18T10:13:09.559Z,51.00
2023-05-18T10:14:16.444Z,51.00
2023-05-18T10:15:34.103Z,51.40
2023-05-18T10:16:55.171Z,51.60
2023-05-18T10:18:53.974Z,51.60
2023-05-18T10:20:04.685Z,51.60
2023-05-18T10:21:26.528Z,51.40
2023-05-18T10:22:36.524Z,51.30
2023-05-18T10:23:52.701Z,51.40
2023-05-18T10:25:07.744Z,50.70
2023-05-18T10:26:18.792Z,50.70
2023-05-18T10:27:29.886Z,50.60
2023-05-18T10:28:43.475Z,50.60
2023-05-18T10:29:56.003Z,50.00
2023-05-18T10:31:08.828Z,50.10
2023-05-18T10:32:16.750Z,49.70
2023-05-18T10:33:29.993Z,50.00
2023-05-18T10:34:36.689Z,50.30
2023-05-18T10:35:55.260Z,49.90
2023-05-18T10:37:15.617Z,50.10
2023-05-18T10:38:48.524Z,50.10
2023-05-18T10:40:10.020Z,50.00
2023-05-18T10:41:24.056Z,49.80
2023-05-18T10:42:33.249Z,49.90
2023-05-18T10:43:42.569Z,49.80
2023-05-18T10:44:49.106Z,50.00
2023-05-18T10:46:04.315Z,50.10
2023-05-18T10:47:11.739Z,50.50
2023-05-18T10:48:33.479Z,50.40
2023-05-18T10:49:56.499Z,50.60
2023-05-18T10:51:07.486Z,50.60
2023-05-18T10:52:18.986Z,50.80
2023-05-18T10:53:26.899Z,50.80
2023-05-18T10:54:31.059Z,51.00
2023-05-18T10:55:58.623Z,50.70
2023-05-18T10:57:08.898Z,50.80
2023-05-18T10:58:16.094Z,49.40
2023-05-18T10:59:29.060Z,49.10
2023-05-18T11:00:42.077Z,49.60
2023-05-18T11:01:54.466Z,49.20
2023-05-18T11:03:02.768Z,50.20
2023-05-18T11:04:10.280Z,49.50
2023-05-18T11:05:25.175Z,49.70
2023-05-18T11:06:30.650Z,48.80
2023-05-18T11:07:37.528Z,49.30
2023-05-18T11:08:56.221Z,49.40
2023-05-18T11:10:15.427Z,49.20
2023-05-18T11:11:28.152Z,49.00
2023-05-18T11:12:42.318Z,49.10
2023-05-18T11:13:52.098Z,49.20
2023-05-18T11:14:57.986Z,49.00
2023-05-18T11:16:11.367Z,48.80
2023-05-18T11:17:22.717Z,47.70
2023-05-18T11:18:39.153Z,48.50
2023-05-18T11:20:14.951Z,48.50
2023-05-18T11:21:52.985Z,48.30
2023-05-18T11:23:05.475Z,47.80
2023-05-18T11:24:29.085Z,47.50
2023-05-18T11:25:51.351Z,47.70
2023-05-18T11:26:58.948Z,47.80
2023-05-18T11:28:10.318Z,47.70
2023-05-18T11:29:27.719Z,47.50
2023-05-18T11:30:52.617Z,46.60
2023-05-18T11:32:01.509Z,46.50
2023-05-18T11:33:20.897Z,47.00
2023-05-18T11:34:48.074Z,45.50
2023-05-18T11:36:15.119Z,46.70
2023-05-18T11:37:39.972Z,47.10
2023-05-18T11:38:59.131Z,46.90
2023-05-18T11:40:09.332Z,46.40
2023-05-18T11:41:39.537Z,46.10
2023-05-18T11:42:44.412Z,46.00
2023-05-18T11:43:58.334Z,46.20
2023-05-18T11:45:09.321Z,46.40
2023-05-18T11:46:21.605Z,46.10
2023-05-18T11:47:39.742Z,45.70
2023-05-18T11:48:45.852Z,46.10
2023-05-18T11:49:53.840Z,46.10
2023-05-18T11:51:01.443Z,46.10
2023-05-18T11:52:23.990Z,46.30
2023-05-18T11:53:30.893Z,46.20
2023-05-18T11:54:45.139Z,46.20
2023-05-18T11:55:53.589Z,46.20
2023-05-18T11:56:59.320Z,46.30
2023-05-18T11:58:05.274Z,45.80
2023-05-18T11:59:15.150Z,46.20
2023-05-18T12:00:21.303Z,45.70
2023-05-18T12:01:35.298Z,45.70
2023-05-18T12:02:47.957Z,45.80
2023-05-18T12:04:03.543Z,45.80
2023-05-18T12:05:12.917Z,45.90
2023-05-18T12:06:24.472Z,45.60
2023-05-18T12:07:36.573Z,45.90
2023-05-18T12:08:44.297Z,46.10
2023-05-18T12:09:50.728Z,46.60
2023-05-18T12:11:01.674Z,46.70
2023-05-18T12:12:09.433Z,46.50
2023-05-18T12:13:17.058Z,46.20
2023-05-18T12:14:22.058Z,46.70
2023-05-18T12:15:29.002Z,46.60
2023-05-18T12:16:38.184Z,46.70
2023-05-18T12:17:44.609Z,46.80
2023-05-18T12:18:50.553Z,46.90
2023-05-18T12:19:56.221Z,47.20
2023-05-18T12:21:04.613Z,46.90
2023-05-18T12:22:13.612Z,46.60
2023-05-18T12:23:16.881Z,46.80
2023-05-18T12:24:25.136Z,47.10
2023-05-18T12:25:32.285Z,47.50
2023-05-18T12:26:35.887Z,47.50
2023-05-18T12:27:45.980Z,47.70
2023-05-18T12:28:49.704Z,47.90
2023-05-18T12:29:57.859Z,47.90
2023-05-18T12:31:07.439Z,47.70
2023-05-18T12:32:14.569Z,47.60
2023-05-18T12:33:19.740Z,47.70
2023-05-18T12:34:23.984Z,47.00
2023-05-18T12:35:33.883Z,47.60
2023-05-18T12:36:44.075Z,47.20
2023-05-18T12:37:51.524Z,47.60
2023-05-18T12:38:55.250Z,47.90
2023-05-18T12:40:02.318Z,48.20
2023-05-18T12:41:06.990Z,48.30
2023-05-18T12:42:16.481Z,48.20
2023-05-18T12:43:22.061Z,48.40
2023-05-18T12:44:30.949Z,48.70
2023-05-18T12:45:38.541Z,48.20
2023-05-18T12:46:43.627Z,48.30
2023-05-18T12:47:47.968Z,47.90
2023-05-18T12:49:01.801Z,48.00
2023-05-18T12:50:07.544Z,47.90
2023-05-18T12:51:22.875Z,48.10
2023-05-18T12:52:28.554Z,47.40
2023-05-18T12:53:43.693Z,47.60
2023-05-18T12:55:00.013Z,48.00
2023-05-18T12:56:09.884Z,48.10
2023-05-18T12:57:16.482Z,48.10
2023-05-18T12:58:24.986Z,48.60
2023-05-18T12:59:31.464Z,48.70
2023-05-18T13:00:39.016Z,48.70
2023-05-18T13:01:45.766Z,48.90
2023-05-18T13:02:51.467Z,48.80
2023-05-18T13:04:00.808Z,48.70
2023-05-18T13:05:11.176Z,48.40
2023-05-18T13:06:19.911Z,48.30
2023-05-18T13:07:27.543Z,48.60
2023-05-18T13:08:33.325Z,48.20
2023-05-18T13:09:48.088Z,48.10
2023-05-18T13:11:08.980Z,48.40
2023-05-18T13:12:17.473Z,48.50
2023-05-18T13:13:23.348Z,47.90
2023-05-18T13:14:30.734Z,47.70
2023-05-18T13:15:39.368Z,47.60
2023-05-18T13:16:51.291Z,47.40
2023-05-18T13:18:03.200Z,47.30
2023-05-18T13:19:10.866Z,46.90
2023-05-18T13:20:15.405Z,47.20
2023-05-18T13:21:21.498Z,47.20
2023-05-18T13:22:24.359Z,47.50
2023-05-18T13:23:31.532Z,46.60
2023-05-18T13:24:34.668Z,46.70
2023-05-18T13:25:44.530Z,46.50
2023-05-18T13:26:47.839Z,46.70
2023-05-18T13:27:54.978Z,46.50
2023-05-18T13:29:00.568Z,46.70
2023-05-18T13:30:05.876Z,46.80
2023-05-18T13:31:18.140Z,46.70
2023-05-18T13:32:23.011Z,46.20
2023-05-18T13:33:29.970Z,46.60
2023-05-18T13:34:38.073Z,46.70
2023-05-18T13:35:43.407Z,47.00
2023-05-18T13:36:53.439Z,46.80
2023-05-18T13:38:01.158Z,46.90
2023-05-18T13:39:19.895Z,47.10
2023-05-18T13:40:27.313Z,47.10
2023-05-18T13:41:31.525Z,47.00
2023-05-18T13:42:35.472Z,47.40
2023-05-18T13:43:39.948Z,47.10
2023-05-18T13:44:50.048Z,46.80
2023-05-18T13:45:54.835Z,47.00
2023-05-18T13:47:06.000Z,46.90
2023-05-18T13:48:15.966Z,47.30
2023-05-18T13:49:19.420Z,47.40
2023-05-18T13:50:29.381Z,47.30
2023-05-18T13:51:34.389Z,47.40
2023-05-18T13:52:38.927Z,47.10
2023-05-18T13:53:42.994Z,47.20
2023-05-18T13:54:46.205Z,47.30
2023-05-18T13:55:50.917Z,47.40
2023-05-18T13:56:54.676Z,47.60
2023-05-18T13:58:01.078Z,47.70
2023-05-18T13:59:11.720Z,47.80
2023-05-18T14:00:17.589Z,48.20
2023-05-18T14:01:22.461Z,48.20
2023-05-18T14:02:29.452Z,48.00
2023-05-18T14:03:34.308Z,48.20
2023-05-18T14:04:41.358Z,48.30
2023-05-18T14:05:46.156Z,48.50
2023-05-18T14:06:54.812Z,48.40
2023-05-18T14:08:11.849Z,48.40
2023-05-18T14:09:18.240Z,48.30
2023-05-18T14:10:25.004Z,47.50
2023-05-18T14:11:27.844Z,47.80
2023-05-18T14:12:32.597Z,47.60
2023-05-18T14:13:38.338Z,47.60
2023-05-18T14:14:43.868Z,47.70
2023-05-18T14:15:51.236Z,47.60
2023-05-18T14:16:55.233Z,47.40
2023-05-18T14:18:01.307Z,47.30
2023-05-18T14:19:04.730Z,47.50
2023-05-18T14:20:11.289Z,47.60
2023-05-18T14:21:14.329Z,47.80
2023-05-18T14:22:19.133Z,47.90
2023-05-18T14:23:27.749Z,47.80
2023-05-18T14:24:33.123Z,47.60
2023-05-18T14:25:37.174Z,47.40
2023-05-18T14:26:43.276Z,47.40
2023-05-18T14:27:47.336Z,47.70
2023-05-18T14:28:50.284Z,48.00
2023-05-18T14:29:55.046Z,48.00
2023-05-18T14:30:59.594Z,48.00
2023-05-18T14:32:03.070Z,48.20
2023-05-18T14:33:08.372Z,48.40
2023-05-18T14:34:12.024Z,48.60
2023-05-18T14:35:29.259Z,48.40
2023-05-18T14:36:34.095Z,48.40
2023-05-18T14:38:10.328Z,48.70
2023-05-18T14:39:14.913Z,48.80
2023-05-18T14:40:19.073Z,48.90
2023-05-18T14:41:22.047Z,49.10
2023-05-18T14:42:40.626Z,49.20
2023-05-18T14:43:46.072Z,48.90
2023-05-18T14:44:54.325Z,48.90
2023-05-18T14:46:08.073Z,49.10
2023-05-18T14:47:14.606Z,49.30
2023-05-18T14:48:21.274Z,49.40
2023-05-18T14:49:25.481Z,49.40
2023-05-18T14:50:34.418Z,49.20
2023-05-18T14:51:48.330Z,49.20
2023-05-18T14:53:08.358Z,49.20
2023-05-18T14:54:22.048Z,49.10
2023-05-18T14:55:36.301Z,49.20
2023-05-18T14:56:42.344Z,49.00
2023-05-18T14:57:48.788Z,49.20
2023-05-18T14:58:53.604Z,49.40
2023-05-18T15:00:01.478Z,49.30
2023-05-18T15:01:10.158Z,49.10
2023-05-18T15:02:23.081Z,49.20
2023-05-18T15:03:30.078Z,49.40
2023-05-18T15:04:39.139Z,49.00
2023-05-18T15:05:51.535Z,48.80
2023-05-18T15:07:18.889Z,48.40
2023-05-18T15:08:26.370Z,48.70
2023-05-18T15:09:51.230Z,48.30
2023-05-18T15:10:57.818Z,48.20
2023-05-18T15:12:12.269Z,48.60
2023-05-18T15:13:33.332Z,48.80
2023-05-18T15:14:43.211Z,48.90
2023-05-18T15:15:48.948Z,48.70
2023-05-18T15:17:14.299Z,48.70
2023-05-18T15:18:47.571Z,48.60
2023-05-18T15:20:04.895Z,48.50
2023-05-18T15:21:17.297Z,48.50
2023-05-18T15:22:23.595Z,48.20
2023-05-18T15:23:35.699Z,48.40
2023-05-18T15:24:44.976Z,48.70
2023-05-18T15:25:51.874Z,48.50
2023-05-18T15:27:06.760Z,48.40
2023-05-18T15:28:15.427Z,48.60
2023-05-18T15:29:29.906Z,48.60
2023-05-18T15:30:43.059Z,48.60
2023-05-18T15:31:53.661Z,48.80
2023-05-18T15:33:05.056Z,48.60
2023-05-18T15:34:43.977Z,49.00
2023-05-18T15:36:19.684Z,49.10
2023-05-18T15:37:30.532Z,49.30
2023-05-18T15:38:45.754Z,49.00
2023-05-18T15:39:59.013Z,49.20
2023-05-18T15:41:04.767Z,49.30
2023-05-18T15:42:18.101Z,49.40
2023-05-18T15:43:30.657Z,49.60
2023-05-18T15:44:39.313Z,49.60
2023-05-18T15:45:58.356Z,49.70
2023-05-18T15:47:05.603Z,49.60
2023-05-18T15:48:29.985Z,49.40
2023-05-18T15:49:56.395Z,49.10
2023-05-18T15:51:06.178Z,49.20
2023-05-18T15:52:14.600Z,49.10
2023-05-18T15:53:34.349Z,49.00
2023-05-18T15:54:48.276Z,48.80
2023-05-18T15:56:06.732Z,48.90
2023-05-18T15:57:25.821Z,49.10
2023-05-18T15:58:33.693Z,48.80
2023-05-18T15:59:42.303Z,49.20
2023-05-18T16:00:54.721Z,49.50
2023-05-18T16:02:03.708Z,49.50
2023-05-18T16:03:10.019Z,49.30
2023-05-18T16:04:22.371Z,49.50
2023-05-18T16:05:31.663Z,49.60
2023-05-18T16:06:41.090Z,49.60
2023-05-18T16:09:08.204Z,49.70
2023-05-18T16:10:26.417Z,49.90
2023-05-18T16:11:39.416Z,50.20
2023-05-18T16:13:14.537Z,50.10
2023-05-18T16:15:40.284Z,51.30
2023-05-18T16:16:49.427Z,52.00
2023-05-18T16:18:12.826Z,52.70
2023-05-18T16:19:29.750Z,53.10